sensor_id;sensor_type;location;lat;lon;timestamp;P1;durP1;ratioP1;P2;durP2;ratioP2
55218;SDS011;41088;44.012;20.902;2022-09-17T00:01:26;15.85;;;7.97;;
55218;SDS011;41088;44.012;20.902;2022-09-17T00:03:56;17.75;;;7.55;;
55218;SDS011;41088;44.012;20.902;2022-09-17T00:06:26;14.90;;;7.50;;
55218;SDS011;41088;44.012;20.902;2022-09-17T00:08:52;11.98;;;7.70;;
55218;SDS011;41088;44.012;20.902;2022-09-17T00:11:23;11.30;;;7.40;;
55218;SDS011;41088;44.012;20.902;2022-09-17T00:13:50;11.48;;;6.50;;
55218;SDS011;41088;44.012;20.902;2022-09-17T00:16:24;14.40;;;6.80;;
55218;SDS011;41088;44.012;20.902;2022-09-17T00:18:50;13.75;;;6.75;;
55218;SDS011;41088;44.012;20.902;2022-09-17T00:21:17;12.80;;;6.93;;
55218;SDS011;41088;44.012;20.902;2022-09-17T00:23:44;12.32;;;6.57;;
55218;SDS011;41088;44.012;20.902;2022-09-17T00:26:10;13.52;;;6.70;;
55218;SDS011;41088;44.012;20.902;2022-09-17T00:28:36;15.55;;;6.47;;
55218;SDS011;41088;44.012;20.902;2022-09-17T00:31:06;10.95;;;5.97;;
55218;SDS011;41088;44.012;20.902;2022-09-17T00:36:00;12.20;;;6.15;;
55218;SDS011;41088;44.012;20.902;2022-09-17T00:38:27;11.43;;;6.20;;
55218;SDS011;41088;44.012;20.902;2022-09-17T00:40:53;15.05;;;6.38;;
55218;SDS011;41088;44.012;20.902;2022-09-17T00:46:07;11.93;;;6.03;;
55218;SDS011;41088;44.012;20.902;2022-09-17T00:48:35;9.90;;;5.80;;
55218;SDS011;41088;44.012;20.902;2022-09-17T00:51:01;13.25;;;6.80;;
55218;SDS011;41088;44.012;20.902;2022-09-17T00:53:30;9.50;;;5.78;;
55218;SDS011;41088;44.012;20.902;2022-09-17T00:56:02;15.90;;;6.25;;
55218;SDS011;41088;44.012;20.902;2022-09-17T00:58:31;13.40;;;6.25;;
55218;SDS011;41088;44.012;20.902;2022-09-17T01:01:01;10.80;;;6.32;;
55218;SDS011;41088;44.012;20.902;2022-09-17T01:03:28;11.77;;;6.57;;
55218;SDS011;41088;44.012;20.902;2022-09-17T01:17:00;11.95;;;6.57;;
55218;SDS011;41088;44.012;20.902;2022-09-17T01:22:02;11.73;;;6.93;;
55218;SDS011;41088;44.012;20.902;2022-09-17T01:32:35;13.05;;;6.50;;
55218;SDS011;41088;44.012;20.902;2022-09-17T01:37:33;11.65;;;6.55;;
55218;SDS011;41088;44.012;20.902;2022-09-17T01:42:52;13.82;;;6.00;;
55218;SDS011;41088;44.012;20.902;2022-09-17T01:45:24;13.70;;;6.45;;
55218;SDS011;41088;44.012;20.902;2022-09-17T01:48:01;12.65;;;6.57;;
55218;SDS011;41088;44.012;20.902;2022-09-17T01:50:30;11.38;;;6.30;;
55218;SDS011;41088;44.012;20.902;2022-09-17T01:52:58;12.88;;;5.93;;
55218;SDS011;41088;44.012;20.902;2022-09-17T01:55:26;14.30;;;6.20;;
55218;SDS011;41088;44.012;20.902;2022-09-17T01:57:56;12.43;;;5.88;;
55218;SDS011;41088;44.012;20.902;2022-09-17T02:00:26;11.05;;;5.82;;
55218;SDS011;41088;44.012;20.902;2022-09-17T02:05:20;9.60;;;5.93;;
55218;SDS011;41088;44.012;20.902;2022-09-17T02:08:33;9.82;;;6.03;;
55218;SDS011;41088;44.012;20.902;2022-09-17T02:10:39;9.88;;;6.07;;
55218;SDS011;41088;44.012;20.902;2022-09-17T02:13:09;11.77;;;5.95;;
55218;SDS011;41088;44.012;20.902;2022-09-17T02:15:37;15.30;;;6.43;;
55218;SDS011;41088;44.012;20.902;2022-09-17T02:18:12;10.27;;;6.30;;
55218;SDS011;41088;44.012;20.902;2022-09-17T02:20:51;10.85;;;5.93;;
55218;SDS011;41088;44.012;20.902;2022-09-17T02:23:25;11.07;;;6.70;;
55218;SDS011;41088;44.012;20.902;2022-09-17T02:25:55;14.48;;;7.25;;
55218;SDS011;41088;44.012;20.902;2022-09-17T02:28:26;13.80;;;6.68;;
55218;SDS011;41088;44.012;20.902;2022-09-17T02:30:55;14.40;;;7.55;;
55218;SDS011;41088;44.012;20.902;2022-09-17T02:33:22;15.05;;;7.53;;
55218;SDS011;41088;44.012;20.902;2022-09-17T02:35:48;14.48;;;7.60;;
55218;SDS011;41088;44.012;20.902;2022-09-17T02:38:24;14.80;;;7.43;;
55218;SDS011;41088;44.012;20.902;2022-09-17T02:40:53;16.45;;;8.32;;
55218;SDS011;41088;44.012;20.902;2022-09-17T02:43:29;16.65;;;9.00;;
55218;SDS011;41088;44.012;20.902;2022-09-17T02:53:53;12.88;;;8.07;;
55218;SDS011;41088;44.012;20.902;2022-09-17T02:59:30;15.10;;;8.57;;
55218;SDS011;41088;44.012;20.902;2022-09-17T03:04:37;17.52;;;8.95;;
55218;SDS011;41088;44.012;20.902;2022-09-17T03:07:07;13.95;;;8.52;;
55218;SDS011;41088;44.012;20.902;2022-09-17T03:09:36;30.33;;;14.13;;
55218;SDS011;41088;44.012;20.902;2022-09-17T03:12:05;30.17;;;15.65;;
55218;SDS011;41088;44.012;20.902;2022-09-17T03:14:31;38.55;;;18.63;;
55218;SDS011;41088;44.012;20.902;2022-09-17T03:16:57;40.97;;;19.55;;
55218;SDS011;41088;44.012;20.902;2022-09-17T03:19:23;49.40;;;21.60;;
55218;SDS011;41088;44.012;20.902;2022-09-17T03:21:49;45.55;;;21.00;;
55218;SDS011;41088;44.012;20.902;2022-09-17T03:24:15;54.20;;;23.58;;
55218;SDS011;41088;44.012;20.902;2022-09-17T03:26:42;57.08;;;23.77;;
55218;SDS011;41088;44.012;20.902;2022-09-17T03:29:08;53.85;;;22.98;;
55218;SDS011;41088;44.012;20.902;2022-09-17T03:31:34;51.15;;;23.25;;
55218;SDS011;41088;44.012;20.902;2022-09-17T03:34:00;50.30;;;22.10;;
55218;SDS011;41088;44.012;20.902;2022-09-17T03:36:26;52.80;;;22.42;;
55218;SDS011;41088;44.012;20.902;2022-09-17T03:38:54;48.78;;;22.48;;
55218;SDS011;41088;44.012;20.902;2022-09-17T03:41:20;48.25;;;22.33;;
55218;SDS011;41088;44.012;20.902;2022-09-17T03:43:46;45.60;;;22.50;;
55218;SDS011;41088;44.012;20.902;2022-09-17T03:46:12;43.28;;;21.10;;
55218;SDS011;41088;44.012;20.902;2022-09-17T03:48:38;41.83;;;21.17;;
55218;SDS011;41088;44.012;20.902;2022-09-17T03:51:05;37.58;;;21.38;;
55218;SDS011;41088;44.012;20.902;2022-09-17T03:53:31;35.38;;;21.10;;
55218;SDS011;41088;44.012;20.902;2022-09-17T03:55:58;29.77;;;18.70;;
55218;SDS011;41088;44.012;20.902;2022-09-17T03:58:28;16.27;;;11.93;;
55218;SDS011;41088;44.012;20.902;2022-09-17T04:00:55;14.48;;;6.18;;
55218;SDS011;41088;44.012;20.902;2022-09-17T04:03:23;11.02;;;3.60;;
55218;SDS011;41088;44.012;20.902;2022-09-17T04:05:49;5.82;;;3.33;;
55218;SDS011;41088;44.012;20.902;2022-09-17T04:08:16;6.97;;;2.10;;
55218;SDS011;41088;44.012;20.902;2022-09-17T04:10:43;4.60;;;1.88;;
55218;SDS011;41088;44.012;20.902;2022-09-17T04:13:10;3.55;;;1.60;;
55218;SDS011;41088;44.012;20.902;2022-09-17T04:15:36;2.13;;;1.50;;
55218;SDS011;41088;44.012;20.902;2022-09-17T04:18:03;3.03;;;1.60;;
55218;SDS011;41088;44.012;20.902;2022-09-17T04:20:29;4.10;;;1.75;;
55218;SDS011;41088;44.012;20.902;2022-09-17T04:22:55;2.83;;;2.00;;
55218;SDS011;41088;44.012;20.902;2022-09-17T04:25:22;4.13;;;1.80;;
55218;SDS011;41088;44.012;20.902;2022-09-17T04:27:48;2.88;;;2.00;;
55218;SDS011;41088;44.012;20.902;2022-09-17T04:30:15;5.78;;;2.40;;
55218;SDS011;41088;44.012;20.902;2022-09-17T04:32:42;4.70;;;2.25;;
55218;SDS011;41088;44.012;20.902;2022-09-17T04:35:08;4.40;;;2.40;;
55218;SDS011;41088;44.012;20.902;2022-09-17T04:37:35;3.10;;;2.58;;
55218;SDS011;41088;44.012;20.902;2022-09-17T04:40:02;8.63;;;3.00;;
55218;SDS011;41088;44.012;20.902;2022-09-17T04:42:28;5.97;;;2.90;;
55218;SDS011;41088;44.012;20.902;2022-09-17T04:44:54;7.72;;;3.15;;
55218;SDS011;41088;44.012;20.902;2022-09-17T04:47:22;6.63;;;3.08;;
55218;SDS011;41088;44.012;20.902;2022-09-17T04:49:49;5.88;;;3.20;;
55218;SDS011;41088;44.012;20.902;2022-09-17T04:52:15;6.20;;;3.42;;
55218;SDS011;41088;44.012;20.902;2022-09-17T04:54:41;5.85;;;3.60;;
55218;SDS011;41088;44.012;20.902;2022-09-17T04:57:07;7.75;;;3.60;;
55218;SDS011;41088;44.012;20.902;2022-09-17T04:59:33;5.93;;;3.35;;
55218;SDS011;41088;44.012;20.902;2022-09-17T05:01:59;7.15;;;3.63;;
55218;SDS011;41088;44.012;20.902;2022-09-17T05:04:26;7.45;;;3.63;;
55218;SDS011;41088;44.012;20.902;2022-09-17T05:06:56;6.35;;;3.55;;
55218;SDS011;41088;44.012;20.902;2022-09-17T05:09:23;7.25;;;3.72;;
55218;SDS011;41088;44.012;20.902;2022-09-17T05:11:49;6.47;;;3.55;;
55218;SDS011;41088;44.012;20.902;2022-09-17T05:14:15;3.42;;;2.60;;
55218;SDS011;41088;44.012;20.902;2022-09-17T05:16:41;4.57;;;2.95;;
55218;SDS011;41088;44.012;20.902;2022-09-17T05:19:08;6.15;;;2.80;;
55218;SDS011;41088;44.012;20.902;2022-09-17T05:21:34;4.60;;;2.50;;
55218;SDS011;41088;44.012;20.902;2022-09-17T05:24:00;3.55;;;2.22;;
55218;SDS011;41088;44.012;20.902;2022-09-17T05:26:26;3.15;;;2.30;;
55218;SDS011;41088;44.012;20.902;2022-09-17T05:28:53;5.70;;;2.00;;
55218;SDS011;41088;44.012;20.902;2022-09-17T05:31:19;3.03;;;2.00;;
55218;SDS011;41088;44.012;20.902;2022-09-17T05:33:46;8.60;;;4.30;;
55218;SDS011;41088;44.012;20.902;2022-09-17T05:36:12;12.75;;;6.53;;
55218;SDS011;41088;44.012;20.902;2022-09-17T05:38:38;13.43;;;6.82;;
55218;SDS011;41088;44.012;20.902;2022-09-17T05:41:05;8.05;;;4.20;;
55218;SDS011;41088;44.012;20.902;2022-09-17T05:43:31;18.38;;;8.75;;
55218;SDS011;41088;44.012;20.902;2022-09-17T05:46:04;14.70;;;7.38;;
55218;SDS011;41088;44.012;20.902;2022-09-17T05:48:31;10.38;;;5.57;;
55218;SDS011;41088;44.012;20.902;2022-09-17T05:50:57;11.50;;;5.35;;
55218;SDS011;41088;44.012;20.902;2022-09-17T05:53:24;5.88;;;3.70;;
55218;SDS011;41088;44.012;20.902;2022-09-17T05:55:50;5.60;;;3.10;;
55218;SDS011;41088;44.012;20.902;2022-09-17T05:58:19;4.85;;;3.22;;
55218;SDS011;41088;44.012;20.902;2022-09-17T06:00:46;5.57;;;3.60;;
55218;SDS011;41088;44.012;20.902;2022-09-17T06:03:15;11.07;;;3.80;;
55218;SDS011;41088;44.012;20.902;2022-09-17T06:05:42;33.22;;;5.18;;
55218;SDS011;41088;44.012;20.902;2022-09-17T06:08:09;7.85;;;3.60;;
55218;SDS011;41088;44.012;20.902;2022-09-17T06:10:36;5.65;;;3.15;;
55218;SDS011;41088;44.012;20.902;2022-09-17T06:13:04;19.08;;;3.80;;
55218;SDS011;41088;44.012;20.902;2022-09-17T06:15:30;7.65;;;3.17;;
55218;SDS011;41088;44.012;20.902;2022-09-17T06:17:56;18.77;;;4.05;;
55218;SDS011;41088;44.012;20.902;2022-09-17T06:20:22;8.32;;;3.70;;
55218;SDS011;41088;44.012;20.902;2022-09-17T06:22:54;8.10;;;3.65;;
55218;SDS011;41088;44.012;20.902;2022-09-17T06:25:21;5.25;;;3.10;;
55218;SDS011;41088;44.012;20.902;2022-09-17T06:27:48;6.05;;;3.30;;
55218;SDS011;41088;44.012;20.902;2022-09-17T06:30:14;5.80;;;3.08;;
55218;SDS011;41088;44.012;20.902;2022-09-17T06:32:40;7.13;;;3.20;;
55218;SDS011;41088;44.012;20.902;2022-09-17T06:35:07;6.00;;;3.55;;
55218;SDS011;41088;44.012;20.902;2022-09-17T06:37:34;11.45;;;2.80;;
55218;SDS011;41088;44.012;20.902;2022-09-17T06:40:04;6.13;;;2.40;;
55218;SDS011;41088;44.012;20.902;2022-09-17T06:42:33;5.25;;;2.05;;
55218;SDS011;41088;44.012;20.902;2022-09-17T06:45:00;5.82;;;2.58;;
55218;SDS011;41088;44.012;20.902;2022-09-17T06:47:26;10.82;;;2.72;;
55218;SDS011;41088;44.012;20.902;2022-09-17T06:49:52;5.85;;;2.60;;
55218;SDS011;41088;44.012;20.902;2022-09-17T06:52:21;4.88;;;2.63;;
55218;SDS011;41088;44.012;20.902;2022-09-17T06:54:48;7.05;;;2.45;;
55218;SDS011;41088;44.012;20.902;2022-09-17T06:57:14;8.45;;;2.65;;
55218;SDS011;41088;44.012;20.902;2022-09-17T06:59:40;4.97;;;2.42;;
55218;SDS011;41088;44.012;20.902;2022-09-17T07:02:07;4.68;;;2.58;;
55218;SDS011;41088;44.012;20.902;2022-09-17T07:04:35;5.55;;;3.20;;
55218;SDS011;41088;44.012;20.902;2022-09-17T07:07:02;12.05;;;3.80;;
55218;SDS011;41088;44.012;20.902;2022-09-17T07:09:29;10.57;;;3.70;;
55218;SDS011;41088;44.012;20.902;2022-09-17T07:11:55;7.20;;;3.60;;
55218;SDS011;41088;44.012;20.902;2022-09-17T07:14:21;9.57;;;3.40;;
55218;SDS011;41088;44.012;20.902;2022-09-17T07:16:49;5.65;;;2.28;;
55218;SDS011;41088;44.012;20.902;2022-09-17T07:19:16;6.15;;;2.58;;
55218;SDS011;41088;44.012;20.902;2022-09-17T07:21:42;5.65;;;2.80;;
55218;SDS011;41088;44.012;20.902;2022-09-17T07:24:08;6.13;;;3.10;;
55218;SDS011;41088;44.012;20.902;2022-09-17T07:26:34;4.50;;;3.22;;
55218;SDS011;41088;44.012;20.902;2022-09-17T07:29:01;5.95;;;3.40;;
55218;SDS011;41088;44.012;20.902;2022-09-17T07:31:27;9.45;;;3.50;;
55218;SDS011;41088;44.012;20.902;2022-09-17T07:33:53;5.90;;;2.72;;
55218;SDS011;41088;44.012;20.902;2022-09-17T07:36:21;5.50;;;3.08;;
55218;SDS011;41088;44.012;20.902;2022-09-17T07:38:48;3.90;;;2.72;;
55218;SDS011;41088;44.012;20.902;2022-09-17T07:41:15;5.63;;;3.33;;
55218;SDS011;41088;44.012;20.902;2022-09-17T07:43:42;9.80;;;4.00;;
55218;SDS011;41088;44.012;20.902;2022-09-17T07:46:13;5.85;;;2.70;;
55218;SDS011;41088;44.012;20.902;2022-09-17T07:48:40;5.53;;;2.70;;
55218;SDS011;41088;44.012;20.902;2022-09-17T07:51:06;4.50;;;2.90;;
55218;SDS011;41088;44.012;20.902;2022-09-17T07:53:32;4.68;;;3.33;;
55218;SDS011;41088;44.012;20.902;2022-09-17T07:55:59;5.53;;;3.17;;
55218;SDS011;41088;44.012;20.902;2022-09-17T07:58:30;8.73;;;2.95;;
55218;SDS011;41088;44.012;20.902;2022-09-17T08:01:04;6.20;;;2.97;;
55218;SDS011;41088;44.012;20.902;2022-09-17T08:03:32;8.63;;;3.50;;
55218;SDS011;41088;44.012;20.902;2022-09-17T08:06:00;5.10;;;3.20;;
55218;SDS011;41088;44.012;20.902;2022-09-17T08:08:28;7.35;;;3.22;;
55218;SDS011;41088;44.012;20.902;2022-09-17T08:10:58;6.38;;;3.38;;
55218;SDS011;41088;44.012;20.902;2022-09-17T08:13:24;9.52;;;4.13;;
55218;SDS011;41088;44.012;20.902;2022-09-17T08:15:50;6.78;;;3.90;;
55218;SDS011;41088;44.012;20.902;2022-09-17T08:18:16;6.78;;;4.40;;
55218;SDS011;41088;44.012;20.902;2022-09-17T08:20:43;6.35;;;4.13;;
55218;SDS011;41088;44.012;20.902;2022-09-17T08:23:09;5.88;;;3.90;;
55218;SDS011;41088;44.012;20.902;2022-09-17T08:25:35;6.32;;;4.00;;
55218;SDS011;41088;44.012;20.902;2022-09-17T08:28:02;6.05;;;3.83;;
55218;SDS011;41088;44.012;20.902;2022-09-17T08:30:28;5.65;;;3.85;;
55218;SDS011;41088;44.012;20.902;2022-09-17T08:32:56;9.30;;;4.15;;
55218;SDS011;41088;44.012;20.902;2022-09-17T08:35:22;7.95;;;4.28;;
55218;SDS011;41088;44.012;20.902;2022-09-17T08:37:50;6.57;;;4.45;;
55218;SDS011;41088;44.012;20.902;2022-09-17T08:40:16;8.05;;;4.45;;
55218;SDS011;41088;44.012;20.902;2022-09-17T08:42:55;8.10;;;4.63;;
55218;SDS011;41088;44.012;20.902;2022-09-17T08:45:24;6.72;;;4.60;;
55218;SDS011;41088;44.012;20.902;2022-09-17T08:47:51;8.30;;;4.50;;
55218;SDS011;41088;44.012;20.902;2022-09-17T08:56:09;10.02;;;5.75;;
55218;SDS011;41088;44.012;20.902;2022-09-17T08:58:47;9.27;;;5.78;;
55218;SDS011;41088;44.012;20.902;2022-09-17T09:06:26;9.60;;;6.47;;
55218;SDS011;41088;44.012;20.902;2022-09-17T09:09:05;10.20;;;6.53;;
55218;SDS011;41088;44.012;20.902;2022-09-17T09:11:35;11.57;;;7.15;;
55218;SDS011;41088;44.012;20.902;2022-09-17T09:16:38;10.75;;;7.55;;
55218;SDS011;41088;44.012;20.902;2022-09-17T09:19:27;10.05;;;6.45;;
55218;SDS011;41088;44.012;20.902;2022-09-17T09:21:59;11.95;;;6.90;;
55218;SDS011;41088;44.012;20.902;2022-09-17T09:25:10;10.15;;;6.57;;
55218;SDS011;41088;44.012;20.902;2022-09-17T09:27:17;10.20;;;6.15;;
55218;SDS011;41088;44.012;20.902;2022-09-17T09:35:15;8.77;;;6.03;;
55218;SDS011;41088;44.012;20.902;2022-09-17T09:37:43;10.88;;;6.55;;
55218;SDS011;41088;44.012;20.902;2022-09-17T09:42:52;11.40;;;6.38;;
55218;SDS011;41088;44.012;20.902;2022-09-17T09:46:07;9.45;;;7.03;;
55218;SDS011;41088;44.012;20.902;2022-09-17T09:53:12;14.27;;;8.15;;
55218;SDS011;41088;44.012;20.902;2022-09-17T09:58:48;15.32;;;8.38;;
55218;SDS011;41088;44.012;20.902;2022-09-17T10:00:57;11.68;;;7.32;;
55218;SDS011;41088;44.012;20.902;2022-09-17T10:03:27;10.98;;;8.02;;
55218;SDS011;41088;44.012;20.902;2022-09-17T10:06:03;15.48;;;7.93;;
55218;SDS011;41088;44.012;20.902;2022-09-17T10:08:31;11.60;;;7.53;;
55218;SDS011;41088;44.012;20.902;2022-09-17T10:10:59;11.65;;;8.15;;
55218;SDS011;41088;44.012;20.902;2022-09-17T10:13:28;10.68;;;7.70;;
55218;SDS011;41088;44.012;20.902;2022-09-17T10:15:55;14.38;;;8.23;;
55218;SDS011;41088;44.012;20.902;2022-09-17T10:18:22;13.00;;;7.97;;
55218;SDS011;41088;44.012;20.902;2022-09-17T10:20:50;11.27;;;8.23;;
55218;SDS011;41088;44.012;20.902;2022-09-17T10:23:16;14.80;;;9.70;;
55218;SDS011;41088;44.012;20.902;2022-09-17T10:25:43;15.13;;;9.13;;
55218;SDS011;41088;44.012;20.902;2022-09-17T10:31:12;13.63;;;8.77;;
55218;SDS011;41088;44.012;20.902;2022-09-17T10:33:49;10.10;;;6.95;;
55218;SDS011;41088;44.012;20.902;2022-09-17T10:36:16;10.63;;;6.50;;
55218;SDS011;41088;44.012;20.902;2022-09-17T10:39:26;11.07;;;6.53;;
55218;SDS011;41088;44.012;20.902;2022-09-17T10:42:01;8.38;;;5.82;;
55218;SDS011;41088;44.012;20.902;2022-09-17T10:44:32;10.40;;;6.75;;
55218;SDS011;41088;44.012;20.902;2022-09-17T10:47:20;9.15;;;6.13;;
55218;SDS011;41088;44.012;20.902;2022-09-17T10:49:47;10.48;;;6.25;;
55218;SDS011;41088;44.012;20.902;2022-09-17T10:57:10;9.25;;;5.15;;
55218;SDS011;41088;44.012;20.902;2022-09-17T10:59:48;8.68;;;5.30;;
55218;SDS011;41088;44.012;20.902;2022-09-17T11:02:24;7.85;;;5.70;;
55218;SDS011;41088;44.012;20.902;2022-09-17T11:18:44;8.13;;;5.10;;
55218;SDS011;41088;44.012;20.902;2022-09-17T11:26:27;6.95;;;4.55;;
55218;SDS011;41088;44.012;20.902;2022-09-17T11:37:31;8.32;;;5.10;;
55218;SDS011;41088;44.012;20.902;2022-09-17T11:39:57;7.80;;;5.25;;
55218;SDS011;41088;44.012;20.902;2022-09-17T11:42:43;7.70;;;6.15;;
55218;SDS011;41088;44.012;20.902;2022-09-17T11:45:12;9.13;;;6.00;;
55218;SDS011;41088;44.012;20.902;2022-09-17T11:47:41;8.37;;;6.80;;
55218;SDS011;41088;44.012;20.902;2022-09-17T11:50:23;9.13;;;7.32;;
55218;SDS011;41088;44.012;20.902;2022-09-17T11:52:59;10.40;;;8.13;;
55218;SDS011;41088;44.012;20.902;2022-09-17T11:55:35;12.05;;;9.38;;
55218;SDS011;41088;44.012;20.902;2022-09-17T11:58:08;11.75;;;10.23;;
55218;SDS011;41088;44.012;20.902;2022-09-17T12:00:37;20.02;;;13.05;;
55218;SDS011;41088;44.012;20.902;2022-09-17T12:03:12;17.10;;;12.38;;
55218;SDS011;41088;44.012;20.902;2022-09-17T12:05:54;16.25;;;13.13;;
55218;SDS011;41088;44.012;20.902;2022-09-17T12:08:22;19.48;;;14.43;;
55218;SDS011;41088;44.012;20.902;2022-09-17T12:11:11;21.10;;;14.63;;
55218;SDS011;41088;44.012;20.902;2022-09-17T12:13:45;22.15;;;14.25;;
55218;SDS011;41088;44.012;20.902;2022-09-17T12:16:23;21.70;;;15.98;;
55218;SDS011;41088;44.012;20.902;2022-09-17T12:18:51;25.85;;;16.17;;
55218;SDS011;41088;44.012;20.902;2022-09-17T12:21:21;28.05;;;17.38;;
55218;SDS011;41088;44.012;20.902;2022-09-17T12:23:53;29.30;;;17.08;;
55218;SDS011;41088;44.012;20.902;2022-09-17T12:26:32;31.42;;;18.75;;
55218;SDS011;41088;44.012;20.902;2022-09-17T12:29:43;34.65;;;19.58;;
55218;SDS011;41088;44.012;20.902;2022-09-17T12:31:52;28.60;;;19.10;;
55218;SDS011;41088;44.012;20.902;2022-09-17T12:42:10;28.27;;;18.73;;
55218;SDS011;41088;44.012;20.902;2022-09-17T12:44:49;32.53;;;20.35;;
55218;SDS011;41088;44.012;20.902;2022-09-17T12:52:52;30.48;;;20.60;;
55218;SDS011;41088;44.012;20.902;2022-09-17T13:00:24;34.90;;;21.67;;
55218;SDS011;41088;44.012;20.902;2022-09-17T13:05:44;32.40;;;21.17;;
55218;SDS011;41088;44.012;20.902;2022-09-17T13:19:26;23.88;;;14.93;;
55218;SDS011;41088;44.012;20.902;2022-09-17T13:21:59;20.10;;;14.48;;
55218;SDS011;41088;44.012;20.902;2022-09-17T13:24:28;26.63;;;16.08;;
55218;SDS011;41088;44.012;20.902;2022-09-17T13:26:56;20.55;;;14.65;;
55218;SDS011;41088;44.012;20.902;2022-09-17T13:32:40;15.88;;;11.60;;
55218;SDS011;41088;44.012;20.902;2022-09-17T13:34:55;18.42;;;12.73;;
55218;SDS011;41088;44.012;20.902;2022-09-17T13:37:21;16.85;;;12.48;;
55218;SDS011;41088;44.012;20.902;2022-09-17T13:39:57;18.08;;;11.80;;
55218;SDS011;41088;44.012;20.902;2022-09-17T13:45:04;18.27;;;12.87;;
55218;SDS011;41088;44.012;20.902;2022-09-17T13:47:37;18.30;;;11.55;;
55218;SDS011;41088;44.012;20.902;2022-09-17T13:50:08;17.35;;;11.77;;
55218;SDS011;41088;44.012;20.902;2022-09-17T13:52:41;11.02;;;8.40;;
55218;SDS011;41088;44.012;20.902;2022-09-17T13:55:28;14.65;;;10.40;;
55218;SDS011;41088;44.012;20.902;2022-09-17T13:57:56;15.80;;;11.82;;
55218;SDS011;41088;44.012;20.902;2022-09-17T14:05:53;14.80;;;11.05;;
55218;SDS011;41088;44.012;20.902;2022-09-17T14:08:29;15.63;;;9.93;;
55218;SDS011;41088;44.012;20.902;2022-09-17T14:10:57;13.80;;;9.45;;
55218;SDS011;41088;44.012;20.902;2022-09-17T14:13:40;13.57;;;9.65;;
55218;SDS011;41088;44.012;20.902;2022-09-17T14:16:24;15.40;;;10.70;;
55218;SDS011;41088;44.012;20.902;2022-09-17T14:21:31;12.35;;;8.52;;
55218;SDS011;41088;44.012;20.902;2022-09-17T14:23:59;12.57;;;8.57;;
55218;SDS011;41088;44.012;20.902;2022-09-17T14:26:51;9.50;;;6.78;;
55218;SDS011;41088;44.012;20.902;2022-09-17T14:31:55;11.70;;;8.93;;
55218;SDS011;41088;44.012;20.902;2022-09-17T14:34:23;12.63;;;9.15;;
55218;SDS011;41088;44.012;20.902;2022-09-17T14:36:50;10.65;;;8.30;;
55218;SDS011;41088;44.012;20.902;2022-09-17T14:39:24;11.57;;;8.35;;
55218;SDS011;41088;44.012;20.902;2022-09-17T14:41:51;11.55;;;8.70;;
55218;SDS011;41088;44.012;20.902;2022-09-17T14:44:21;16.38;;;9.50;;
55218;SDS011;41088;44.012;20.902;2022-09-17T14:46:55;14.57;;;9.73;;
55218;SDS011;41088;44.012;20.902;2022-09-17T14:49:24;15.00;;;9.40;;
55218;SDS011;41088;44.012;20.902;2022-09-17T14:51:51;10.55;;;7.47;;
55218;SDS011;41088;44.012;20.902;2022-09-17T15:02:00;11.68;;;7.75;;
55218;SDS011;41088;44.012;20.902;2022-09-17T15:04:26;11.00;;;7.28;;
55218;SDS011;41088;44.012;20.902;2022-09-17T15:07:05;11.25;;;7.30;;
55218;SDS011;41088;44.012;20.902;2022-09-17T15:09:37;13.02;;;8.73;;
55218;SDS011;41088;44.012;20.902;2022-09-17T15:12:06;11.88;;;8.23;;
55218;SDS011;41088;44.012;20.902;2022-09-17T15:14:33;11.82;;;8.00;;
55218;SDS011;41088;44.012;20.902;2022-09-17T15:17:02;11.98;;;8.70;;
55218;SDS011;41088;44.012;20.902;2022-09-17T15:19:30;14.05;;;8.88;;
55218;SDS011;41088;44.012;20.902;2022-09-17T15:21:57;11.93;;;8.25;;
55218;SDS011;41088;44.012;20.902;2022-09-17T15:27:02;12.40;;;8.85;;
55218;SDS011;41088;44.012;20.902;2022-09-17T15:29:31;14.48;;;8.45;;
55218;SDS011;41088;44.012;20.902;2022-09-17T15:32:03;13.48;;;9.00;;
55218;SDS011;41088;44.012;20.902;2022-09-17T15:34:30;13.48;;;10.13;;
55218;SDS011;41088;44.012;20.902;2022-09-17T15:37:14;13.67;;;9.53;;
55218;SDS011;41088;44.012;20.902;2022-09-17T15:39:51;13.35;;;9.93;;
55218;SDS011;41088;44.012;20.902;2022-09-17T15:42:31;12.98;;;9.70;;
55218;SDS011;41088;44.012;20.902;2022-09-17T15:45:08;13.05;;;9.18;;
55218;SDS011;41088;44.012;20.902;2022-09-17T15:47:54;16.38;;;10.27;;
55218;SDS011;41088;44.012;20.902;2022-09-17T16:37:08;22.83;;;14.25;;
55218;SDS011;41088;44.012;20.902;2022-09-17T16:39:35;21.67;;;14.68;;
55218;SDS011;41088;44.012;20.902;2022-09-17T16:42:02;21.60;;;14.10;;
55218;SDS011;41088;44.012;20.902;2022-09-17T16:44:29;19.25;;;13.50;;
55218;SDS011;41088;44.012;20.902;2022-09-17T16:46:55;22.60;;;13.93;;
55218;SDS011;41088;44.012;20.902;2022-09-17T16:49:21;21.50;;;13.68;;
55218;SDS011;41088;44.012;20.902;2022-09-17T16:51:48;20.75;;;14.75;;
55218;SDS011;41088;44.012;20.902;2022-09-17T16:54:14;22.00;;;15.50;;
55218;SDS011;41088;44.012;20.902;2022-09-17T16:56:40;22.50;;;14.88;;
55218;SDS011;41088;44.012;20.902;2022-09-17T16:59:07;19.20;;;13.60;;
55218;SDS011;41088;44.012;20.902;2022-09-17T17:01:33;20.85;;;13.40;;
55218;SDS011;41088;44.012;20.902;2022-09-17T17:04:00;21.38;;;13.65;;
55218;SDS011;41088;44.012;20.902;2022-09-17T17:06:27;19.77;;;12.93;;
55218;SDS011;41088;44.012;20.902;2022-09-17T17:08:54;20.42;;;12.57;;
55218;SDS011;41088;44.012;20.902;2022-09-17T17:11:20;21.27;;;13.18;;
55218;SDS011;41088;44.012;20.902;2022-09-17T17:13:46;20.10;;;13.48;;
55218;SDS011;41088;44.012;20.902;2022-09-17T17:16:13;20.83;;;13.75;;
55218;SDS011;41088;44.012;20.902;2022-09-17T17:18:43;21.58;;;13.80;;
55218;SDS011;41088;44.012;20.902;2022-09-17T17:21:11;23.50;;;14.52;;
55218;SDS011;41088;44.012;20.902;2022-09-17T17:23:37;23.83;;;14.77;;
55218;SDS011;41088;44.012;20.902;2022-09-17T17:26:04;23.90;;;15.00;;
55218;SDS011;41088;44.012;20.902;2022-09-17T17:28:31;23.98;;;15.77;;
55218;SDS011;41088;44.012;20.902;2022-09-17T17:31:00;23.57;;;15.03;;
55218;SDS011;41088;44.012;20.902;2022-09-17T17:33:27;24.80;;;15.93;;
55218;SDS011;41088;44.012;20.902;2022-09-17T17:35:53;24.40;;;15.75;;
55218;SDS011;41088;44.012;20.902;2022-09-17T17:38:19;27.88;;;16.38;;
55218;SDS011;41088;44.012;20.902;2022-09-17T17:40:45;25.10;;;15.65;;
55218;SDS011;41088;44.012;20.902;2022-09-17T17:43:12;24.60;;;14.93;;
55218;SDS011;41088;44.012;20.902;2022-09-17T17:45:39;20.00;;;14.00;;
55218;SDS011;41088;44.012;20.902;2022-09-17T17:48:05;20.98;;;14.30;;
55218;SDS011;41088;44.012;20.902;2022-09-17T17:50:32;19.20;;;13.73;;
55218;SDS011;41088;44.012;20.902;2022-09-17T17:52:58;21.33;;;14.45;;
55218;SDS011;41088;44.012;20.902;2022-09-17T17:55:25;17.60;;;12.93;;
55218;SDS011;41088;44.012;20.902;2022-09-17T17:57:54;20.88;;;13.25;;
55218;SDS011;41088;44.012;20.902;2022-09-17T18:00:21;20.10;;;13.65;;
55218;SDS011;41088;44.012;20.902;2022-09-17T18:02:49;22.77;;;14.23;;
55218;SDS011;41088;44.012;20.902;2022-09-17T18:05:15;19.40;;;13.90;;
55218;SDS011;41088;44.012;20.902;2022-09-17T18:07:43;20.63;;;14.23;;
55218;SDS011;41088;44.012;20.902;2022-09-17T18:10:09;20.55;;;14.82;;
55218;SDS011;41088;44.012;20.902;2022-09-17T18:12:35;17.40;;;13.15;;
55218;SDS011;41088;44.012;20.902;2022-09-17T18:15:03;16.52;;;13.25;;